Iwanui, Waitara Historical Data
 
Daily Summary for June 19, 2018 Units:  Metric    English   Both
« Previous Day
Next Day »
Daily Weekly Monthly Yearly Custom
  Current: High: Low: Average:
Temperature: 10.8 °C 17.3 °C 9.6 °C 12.3 °C
Dew Point: 5.6 °C 9.7 °C 5.6 °C 8 °C
Humidity: 70% 93% 51% 76%
Wind Speed: 12.2km/h 15.8km/h 0.0km/h 7.1km/h
Wind Gust: 24.5km/h 30.6km/h - -
WindSSE - - SSE
Pressure: 1016.0 hPa 1016.0 hPa 1005.7 hPa -
Precipitation: 1.0 mm      
Historical Graphs
 
 
Tabular Data for June 19, 2018
Time Temperature Dew Point Pressure Wind Wind Speed Wind Gust Humidity Rainfall Rate (Hourly)
00:04 11.1 °C 9.3 °C 1005.7 hPa Calm   2.6 km/h 89% 1.5 mm
00:09 11.0 °C 9.3 °C 1005.8 hPa West 2.6 km/h 3.5 km/h 89% 0.5 mm
00:14 11.1 °C 9.5 °C 1005.8 hPa Calm   5.0 km/h 90% 0.0 mm
00:20 11.0 °C 9.4 °C 1005.8 hPa Calm   5.0 km/h 90% 0.0 mm
00:24 10.8 °C 9.4 °C 1005.7 hPa Calm     91% 0.0 mm
00:29 10.7 °C 9.1 °C 1005.9 hPa Calm     90% 0.0 mm
00:34 10.7 °C 9.3 °C 1005.9 hPa Calm     91% 0.0 mm
00:39 10.7 °C 9.3 °C 1006.0 hPa Calm     91% 0.0 mm
00:44 10.7 °C 9.3 °C 1006.0 hPa Calm     91% 0.3 mm
00:49 10.8 °C 9.4 °C 1006.1 hPa SSW 2.6 km/h 9.7 km/h 91% 0.3 mm
00:54 11.0 °C 9.4 °C 1006.3 hPa SSW 2.6 km/h 9.7 km/h 90% 0.3 mm
00:59 11.0 °C 9.4 °C 1006.2 hPa South 2.6 km/h 7.2 km/h 90% 0.3 mm
01:04 10.9 °C 9.5 °C 1006.3 hPa Calm   5.0 km/h 91% 0.3 mm
01:09 10.8 °C 9.4 °C 1006.1 hPa Calm   2.6 km/h 91% 0.3 mm
01:14 10.8 °C 9.4 °C 1006.2 hPa Calm   1.1 km/h 91% 0.3 mm
01:19 10.6 °C 9.2 °C 1006.4 hPa Calm     91% 0.3 mm
01:25 10.4 °C 9.0 °C 1006.7 hPa Calm     91% 0.3 mm
01:29 10.3 °C 8.9 °C 1006.7 hPa Calm   1.1 km/h 91% 0.3 mm
01:34 10.3 °C 8.9 °C 1006.7 hPa East 2.6 km/h 3.5 km/h 91% 0.3 mm
01:39 10.3 °C 8.9 °C 1006.8 hPa East 2.6 km/h 5.0 km/h 91% 0.3 mm
01:44 10.3 °C 8.9 °C 1006.8 hPa ESE 2.6 km/h 5.0 km/h 91% 0.0 mm
01:49 10.3 °C 8.9 °C 1006.6 hPa ESE 2.6 km/h 5.0 km/h 91% 0.0 mm
01:54 10.0 °C 8.6 °C 1006.6 hPa Calm   3.5 km/h 91% 0.0 mm
01:59 10.0 °C 8.6 °C 1006.6 hPa ESE 1.1 km/h 3.5 km/h 91% 0.0 mm
02:04 10.1 °C 8.7 °C 1006.6 hPa SE 1.1 km/h 3.5 km/h 91% 0.0 mm
02:10 10.2 °C 8.8 °C 1006.8 hPa Calm   3.5 km/h 91% 0.0 mm
02:14 10.0 °C 8.6 °C 1006.8 hPa ESE 1.1 km/h 3.5 km/h 91% 0.0 mm
02:19 9.9 °C 8.7 °C 1006.9 hPa ESE 1.1 km/h 3.5 km/h 92% 0.0 mm
02:24 9.9 °C 8.7 °C 1006.9 hPa Calm   3.5 km/h 92% 0.0 mm
02:29 9.9 °C 8.7 °C 1007.0 hPa Calm   2.6 km/h 92% 0.0 mm
02:34 9.7 °C 8.4 °C 1007.1 hPa Calm     92% 0.0 mm
02:40 9.6 °C 8.4 °C 1007.2 hPa Calm     92% 0.0 mm
02:44 9.7 °C 8.4 °C 1007.1 hPa South 1.1 km/h 5.0 km/h 92% 0.0 mm
02:49 9.9 °C 8.7 °C 1007.1 hPa South 1.1 km/h 5.0 km/h 92% 0.0 mm
02:54 10.0 °C 8.8 °C 1007.3 hPa Calm   3.5 km/h 92% 0.0 mm
02:59 10.0 °C 8.8 °C 1007.3 hPa Calm   3.5 km/h 92% 0.0 mm
03:04 10.0 °C 8.8 °C 1007.2 hPa Calm   2.6 km/h 92% 0.0 mm
03:09 9.9 °C 8.8 °C 1007.3 hPa Calm     93% 0.0 mm
03:14 10.0 °C 8.8 °C 1007.3 hPa SE 1.1 km/h 3.5 km/h 92% 0.0 mm
03:19 10.0 °C 8.8 °C 1007.2 hPa SSE 1.1 km/h 3.5 km/h 92% 0.0 mm
03:24 10.0 °C 8.8 °C 1007.3 hPa Calm   5.0 km/h 92% 0.0 mm
03:29 10.0 °C 8.8 °C 1007.2 hPa Calm   5.0 km/h 92% 0.0 mm
03:34 10.0 °C 8.8 °C 1007.3 hPa Calm   1.1 km/h 92% 0.0 mm
03:39 9.9 °C 8.8 °C 1007.3 hPa Calm   1.1 km/h 93% 0.0 mm
03:44 9.9 °C 8.8 °C 1007.4 hPa Calm   1.1 km/h 93% 0.0 mm
03:49 9.9 °C 8.8 °C 1007.4 hPa Calm   1.1 km/h 93% 0.0 mm
03:54 10.0 °C 8.8 °C 1007.4 hPa Calm     92% 0.0 mm
03:59 10.0 °C 8.8 °C 1007.4 hPa Calm     92% 0.0 mm
04:04 10.0 °C 8.8 °C 1007.6 hPa Calm     92% 0.0 mm
04:09 10.1 °C 8.9 °C 1007.8 hPa South 11.1 km/h 15.8 km/h 92% 0.0 mm
04:14 10.3 °C 9.1 °C 1007.8 hPa SSE 6.1 km/h 15.8 km/h 92% 0.0 mm
04:19 10.3 °C 9.1 °C 1007.9 hPa South 6.1 km/h 15.8 km/h 92% 0.0 mm
04:24 10.3 °C 9.1 °C 1007.8 hPa South 3.5 km/h 11.1 km/h 92% 0.0 mm
04:29 10.3 °C 9.1 °C 1007.8 hPa SSE 5.0 km/h 11.1 km/h 92% 0.0 mm
04:35 10.3 °C 9.1 °C 1007.8 hPa SSE 5.0 km/h 11.1 km/h 92% 0.0 mm
04:39 10.2 °C 8.9 °C 1007.8 hPa SSE 5.0 km/h 8.7 km/h 92% 0.0 mm
04:44 10.2 °C 8.9 °C 1007.9 hPa SSE 3.5 km/h 9.7 km/h 92% 0.0 mm
04:50 10.2 °C 8.9 °C 1007.9 hPa SSE 6.1 km/h 11.1 km/h 92% 0.0 mm
04:54 10.2 °C 9.1 °C 1008.1 hPa South 2.6 km/h 11.1 km/h 93% 0.0 mm
04:59 10.2 °C 9.1 °C 1008.2 hPa South 3.5 km/h 11.1 km/h 93% 0.0 mm
05:04 10.3 °C 9.2 °C 1008.1 hPa South 11.1 km/h 18.3 km/h 93% 0.0 mm
05:09 10.3 °C 9.2 °C 1008.1 hPa South 5.0 km/h 18.3 km/h 93% 0.0 mm
05:14 10.3 °C 9.2 °C 1008.2 hPa SSE 8.7 km/h 18.3 km/h 93% 0.0 mm
05:19 10.4 °C 9.3 °C 1008.3 hPa SSE 5.0 km/h 17.2 km/h 93% 0.0 mm
05:24 10.4 °C 9.3 °C 1008.3 hPa South 6.1 km/h 17.2 km/h 93% 0.0 mm
05:29 10.4 °C 9.3 °C 1008.4 hPa South 6.1 km/h 19.5 km/h 93% 0.0 mm
05:34 10.5 °C 9.4 °C 1008.6 hPa SSE 8.7 km/h 19.5 km/h 93% 0.0 mm
05:39 10.5 °C 9.4 °C 1008.4 hPa South 7.2 km/h 18.3 km/h 93% 0.0 mm
05:44 10.6 °C 9.5 °C 1008.3 hPa SSE 12.2 km/h 23.3 km/h 93% 0.0 mm
05:50 10.7 °C 9.6 °C 1008.4 hPa SSE 8.7 km/h 24.5 km/h 93% 0.0 mm
05:54 10.7 °C 9.6 °C 1008.5 hPa South 9.7 km/h 24.5 km/h 93% 0.0 mm
05:59 10.7 °C 9.6 °C 1008.4 hPa SSE 14.8 km/h 23.3 km/h 93% 0.3 mm
06:04 10.6 °C 9.5 °C 1008.6 hPa SSE 5.0 km/h 23.3 km/h 93% 0.3 mm
06:10 10.6 °C 9.5 °C 1008.5 hPa South 9.7 km/h 19.5 km/h 93% 0.3 mm
06:14 10.5 °C 9.4 °C 1008.7 hPa South 9.7 km/h 20.9 km/h 93% 0.3 mm
06:19 10.5 °C 9.4 °C 1008.8 hPa SE 9.7 km/h 20.9 km/h 93% 0.3 mm
06:24 10.4 °C 9.3 °C 1008.9 hPa SSE 9.7 km/h 18.3 km/h 93% 0.3 mm
06:29 10.4 °C 9.2 °C 1009.2 hPa SSE 6.1 km/h 20.9 km/h 92% 0.3 mm
06:34 10.4 °C 9.2 °C 1009.4 hPa SSE 11.1 km/h 20.9 km/h 92% 0.3 mm
06:39 10.4 °C 9.2 °C 1009.4 hPa SE 7.2 km/h 19.5 km/h 92% 0.3 mm
06:44 10.5 °C 9.3 °C 1009.2 hPa SE 7.2 km/h 19.5 km/h 92% 0.3 mm
06:49 10.5 °C 9.3 °C 1009.5 hPa SSE 6.1 km/h 15.8 km/h 92% 0.3 mm
06:54 10.5 °C 9.1 °C 1009.6 hPa SSE 11.1 km/h 18.3 km/h 91% 0.0 mm
06:59 10.5 °C 9.1 °C 1009.6 hPa SSE 3.5 km/h 18.3 km/h 91% 0.0 mm
07:04 10.5 °C 9.1 °C 1009.9 hPa SE 7.2 km/h 18.3 km/h 91% 0.0 mm
07:09 10.5 °C 9.1 °C 1010.0 hPa SE 8.7 km/h 15.8 km/h 91% 0.0 mm
07:14 10.5 °C 8.9 °C 1009.9 hPa SE 3.5 km/h 15.8 km/h 90% 0.0 mm
07:19 10.4 °C 8.8 °C 1010.1 hPa SE 6.1 km/h 14.8 km/h 90% 0.0 mm
07:25 10.4 °C 8.8 °C 1010.1 hPa SE 3.5 km/h 15.8 km/h 90% 0.0 mm
07:29 10.4 °C 8.8 °C 1010.2 hPa SE 6.1 km/h 15.8 km/h 90% 0.0 mm
07:35 10.4 °C 8.8 °C 1010.2 hPa SSE 6.1 km/h 13.4 km/h 90% 0.0 mm
07:39 10.4 °C 8.8 °C 1010.3 hPa SE 8.7 km/h 13.4 km/h 90% 0.3 mm
07:44 10.4 °C 8.8 °C 1010.2 hPa SE 3.5 km/h 12.2 km/h 90% 0.3 mm
07:49 10.4 °C 8.8 °C 1010.4 hPa ESE 11.1 km/h 14.8 km/h 90% 0.3 mm
07:54 10.5 °C 8.9 °C 1010.7 hPa SE 5.0 km/h 14.8 km/h 90% 0.3 mm
07:59 10.5 °C 8.9 °C 1010.7 hPa SE 7.2 km/h 14.8 km/h 90% 0.3 mm
08:04 10.6 °C 9.1 °C 1010.5 hPa SE 6.1 km/h 13.4 km/h 90% 0.3 mm
08:09 10.7 °C 9.1 °C 1010.4 hPa SE 11.1 km/h 14.8 km/h 90% 0.3 mm
08:14 10.8 °C 9.2 °C 1010.5 hPa SE 7.2 km/h 17.2 km/h 90% 0.3 mm
08:20 11.2 °C 9.4 °C 1010.7 hPa SE 5.0 km/h 17.2 km/h 89% 0.3 mm
08:24 11.4 °C 9.7 °C 1010.7 hPa SSE 5.0 km/h 15.8 km/h 89% 0.3 mm
08:29 11.7 °C 9.6 °C 1010.6 hPa SE 5.0 km/h 18.3 km/h 87% 0.3 mm
08:34 12.0 °C 9.6 °C 1010.6 hPa SE 7.2 km/h 20.9 km/h 85% 0.3 mm
08:39 12.2 °C 9.6 °C 1010.7 hPa South 13.4 km/h 20.9 km/h 84% 0.0 mm
08:44 12.1 °C 8.9 °C 1010.8 hPa SSE 7.2 km/h 21.9 km/h 81% 0.0 mm
08:49 12.4 °C 9.1 °C 1010.8 hPa SE 8.7 km/h 21.9 km/h 80% 0.0 mm
08:54 12.2 °C 8.5 °C 1010.8 hPa SE 6.1 km/h 25.6 km/h 78% 0.0 mm
08:59 11.9 °C 8.4 °C 1010.9 hPa SE 7.2 km/h 25.6 km/h 79% 0.0 mm
09:04 11.8 °C 8.4 °C 1011.0 hPa SSE 5.0 km/h 24.5 km/h 80% 0.0 mm
09:09 11.8 °C 8.4 °C 1011.1 hPa SSE 9.7 km/h 24.5 km/h 80% 0.0 mm
09:14 11.8 °C 8.4 °C 1011.1 hPa SE 6.1 km/h 20.9 km/h 80% 0.0 mm
09:19 11.9 °C 8.7 °C 1011.3 hPa SE 9.7 km/h 20.9 km/h 81% 0.0 mm
09:25 12.2 °C 8.8 °C 1011.2 hPa SE 8.7 km/h 17.2 km/h 80% 0.0 mm
09:29 12.5 °C 8.9 °C 1011.4 hPa SSE 11.1 km/h 14.8 km/h 79% 0.0 mm
09:34 12.3 °C 8.6 °C 1011.6 hPa SSE 11.1 km/h 18.3 km/h 78% 0.0 mm
09:39 12.1 °C 8.2 °C 1011.6 hPa SE 8.7 km/h 18.3 km/h 77% 0.0 mm
09:45 12.1 °C 8.4 °C 1011.8 hPa SE 8.7 km/h 18.3 km/h 78% 0.0 mm
09:49 12.2 °C 8.5 °C 1011.8 hPa ESE 12.2 km/h 18.3 km/h 78% 0.0 mm
09:54 12.3 °C 8.6 °C 1011.9 hPa SE 13.4 km/h 19.5 km/h 78% 0.0 mm
09:59 12.5 °C 8.8 °C 1011.9 hPa SE 7.2 km/h 19.5 km/h 78% 0.0 mm
10:05 12.6 °C 8.9 °C 1011.8 hPa SSE 12.2 km/h 19.5 km/h 78% 0.0 mm
10:10 12.7 °C 8.8 °C 1011.9 hPa SE 9.7 km/h 19.5 km/h 77% 0.0 mm
10:14 12.8 °C 8.9 °C 1012.0 hPa SE 8.7 km/h 21.9 km/h 77% 0.0 mm
10:19 13.0 °C 8.9 °C 1012.0 hPa SSE 9.7 km/h 21.9 km/h 76% 0.0 mm
10:24 13.0 °C 8.7 °C 1012.1 hPa SSE 8.7 km/h 21.9 km/h 75% 0.0 mm
10:29 12.9 °C 8.4 °C 1012.2 hPa SE 8.7 km/h 20.9 km/h 74% 0.0 mm
10:34 12.9 °C 8.4 °C 1012.3 hPa SSE 9.7 km/h 23.3 km/h 74% 0.0 mm
10:40 13.1 °C 8.6 °C 1012.3 hPa SSE 8.7 km/h 23.3 km/h 74% 0.0 mm
10:44 13.3 °C 8.8 °C 1012.4 hPa ESE 11.1 km/h 19.5 km/h 74% 0.0 mm
10:49 13.5 °C 8.8 °C 1012.3 hPa ESE 6.1 km/h 19.5 km/h 73% 0.0 mm
10:54 14.4 °C 9.4 °C 1012.3 hPa SE 8.7 km/h 14.8 km/h 72% 0.0 mm
10:59 15.7 °C 9.4 °C 1012.3 hPa SE 6.1 km/h 23.3 km/h 66% 0.0 mm
11:05 16.2 °C 8.7 °C 1012.2 hPa SSE 8.7 km/h 23.3 km/h 61% 0.0 mm
11:09 16.3 °C 8.8 °C 1012.2 hPa SE 11.1 km/h 21.9 km/h 61% 0.0 mm
11:14 16.3 °C 8.5 °C 1012.3 hPa SE 11.1 km/h 21.9 km/h 60% 0.0 mm
11:19 16.2 °C 8.2 °C 1012.2 hPa SE 7.2 km/h 21.9 km/h 59% 0.0 mm
11:24 16.3 °C 8.3 °C 1012.4 hPa SE 11.1 km/h 21.9 km/h 59% 0.0 mm
11:29 16.2 °C 8.2 °C 1012.5 hPa East 11.1 km/h 25.6 km/h 59% 0.0 mm
11:34 16.5 °C 8.4 °C 1012.3 hPa East 5.0 km/h 25.6 km/h 59% 0.0 mm
11:39 16.2 °C 7.9 °C 1012.4 hPa ESE 9.7 km/h 24.5 km/h 58% 0.0 mm
11:44 16.2 °C 8.4 °C 1012.4 hPa ESE 5.0 km/h 24.5 km/h 60% 0.0 mm
11:49 16.5 °C 8.4 °C 1012.4 hPa ESE 12.2 km/h 17.2 km/h 59% 0.0 mm
11:54 16.4 °C 8.4 °C 1012.3 hPa ESE 9.7 km/h 19.5 km/h 59% 0.0 mm
11:59 16.5 °C 8.2 °C 1012.3 hPa ESE 8.7 km/h 21.9 km/h 58% 0.0 mm
12:04 16.8 °C 8.7 °C 1012.2 hPa ESE 9.7 km/h 21.9 km/h 59% 0.0 mm
12:10 16.8 °C 8.2 °C 1012.1 hPa SE 8.7 km/h 20.9 km/h 57% 0.0 mm
12:14 17.0 °C 8.7 °C 1012.1 hPa SE 3.5 km/h 20.9 km/h 58% 0.0 mm
12:19 17.3 °C 8.2 °C 1012.0 hPa SSE 12.2 km/h 19.5 km/h 55% 0.0 mm
12:24 17.1 °C 8.0 °C 1012.1 hPa SE 12.2 km/h 19.5 km/h 55% 0.0 mm
12:29 16.8 °C 8.0 °C 1012.0 hPa ESE 14.8 km/h 25.6 km/h 56% 0.0 mm
12:34 16.9 °C 8.1 °C 1012.0 hPa SE 8.7 km/h 25.6 km/h 56% 0.0 mm
12:39 16.9 °C 8.1 °C 1012.1 hPa SE 11.1 km/h 25.6 km/h 56% 0.0 mm
12:44 16.7 °C 7.9 °C 1011.9 hPa ESE 12.2 km/h 21.9 km/h 56% 0.0 mm
12:49 16.5 °C 7.9 °C 1011.8 hPa ESE 8.7 km/h 21.9 km/h 57% 0.0 mm
12:54 16.6 °C 8.1 °C 1011.8 hPa SE 12.2 km/h 21.9 km/h 57% 0.0 mm
12:59 16.6 °C 7.8 °C 1011.8 hPa SSE 8.7 km/h 23.3 km/h 56% 0.0 mm
13:05 16.6 °C 8.1 °C 1011.8 hPa SSE 11.1 km/h 23.3 km/h 57% 0.0 mm
13:09 16.7 °C 8.2 °C 1011.8 hPa SE 13.4 km/h 23.3 km/h 57% 0.0 mm
13:14 16.6 °C 7.8 °C 1011.7 hPa SSE 7.2 km/h 21.9 km/h 56% 0.0 mm
13:19 16.6 °C 7.8 °C 1011.8 hPa SSE 8.7 km/h 21.9 km/h 56% 0.0 mm
13:24 16.7 °C 7.6 °C 1011.8 hPa SSE 9.7 km/h 21.9 km/h 55% 0.0 mm
13:30 16.8 °C 7.4 °C 1011.8 hPa SSE 6.1 km/h 21.9 km/h 54% 0.0 mm
13:35 17.2 °C 7.8 °C 1011.8 hPa SE 13.4 km/h 19.5 km/h 54% 0.0 mm
13:40 17.0 °C 7.1 °C 1011.9 hPa SSE 11.1 km/h 21.9 km/h 52% 0.0 mm
13:44 16.9 °C 7.3 °C 1011.9 hPa SE 6.1 km/h 23.3 km/h 53% 0.0 mm
13:49 16.8 °C 7.4 °C 1011.9 hPa SE 7.2 km/h 23.3 km/h 54% 0.0 mm
13:54 16.8 °C 7.4 °C 1011.8 hPa SE 8.7 km/h 20.9 km/h 54% 0.0 mm
14:00 16.8 °C 7.4 °C 1011.7 hPa SE 7.2 km/h 18.3 km/h 54% 0.0 mm
14:04 16.9 °C 7.6 °C 1011.6 hPa ESE 9.7 km/h 18.3 km/h 54% 0.0 mm
14:09 16.7 °C 7.1 °C 1011.7 hPa SE 11.1 km/h 30.6 km/h 53% 0.0 mm
14:14 16.3 °C 6.7 °C 1011.6 hPa SSE 12.2 km/h 30.6 km/h 53% 0.0 mm
14:19 15.9 °C 7.2 °C 1011.6 hPa South 6.1 km/h 24.5 km/h 56% 0.0 mm
14:24 16.5 °C 7.7 °C 1011.6 hPa SE 8.7 km/h 21.9 km/h 56% 0.0 mm
14:29 16.8 °C 7.4 °C 1011.8 hPa SE 7.2 km/h 21.9 km/h 54% 0.0 mm
14:34 16.9 °C 7.3 °C 1011.8 hPa SSE 9.7 km/h 24.5 km/h 53% 0.0 mm
14:39 17.0 °C 6.8 °C 1011.8 hPa SSE 7.2 km/h 24.5 km/h 51% 0.0 mm
14:44 17.2 °C 7.0 °C 1011.9 hPa SE 12.2 km/h 24.5 km/h 51% 0.0 mm
14:49 16.8 °C 6.9 °C 1011.9 hPa SE 12.2 km/h 24.5 km/h 52% 0.0 mm
14:54 16.5 °C 7.2 °C 1012.0 hPa SE 8.7 km/h 24.5 km/h 54% 0.0 mm
15:00 16.4 °C 7.1 °C 1012.0 hPa SE 13.4 km/h 23.3 km/h 54% 0.0 mm
15:04 16.3 °C 7.0 °C 1012.0 hPa SE 7.2 km/h 20.9 km/h 54% 0.0 mm
15:09 16.4 °C 7.1 °C 1012.1 hPa SE 12.2 km/h 20.9 km/h 54% 0.0 mm
15:14 16.4 °C 7.3 °C 1012.1 hPa SE 2.6 km/h 20.9 km/h 55% 0.0 mm
15:19 16.4 °C 7.6 °C 1012.0 hPa SE 7.2 km/h 20.9 km/h 56% 0.0 mm
15:24 16.2 °C 7.7 °C 1012.1 hPa SSE 7.2 km/h 15.8 km/h 57% 0.0 mm
15:29 16.3 °C 8.1 °C 1012.1 hPa SSE 5.0 km/h 14.8 km/h 58% 0.0 mm
15:34 15.9 °C 7.7 °C 1012.2 hPa SE 3.5 km/h 14.8 km/h 58% 0.0 mm
15:40 14.4 °C 7.0 °C 1012.2 hPa SE 2.6 km/h 12.2 km/h 61% 0.0 mm
15:44 14.4 °C 7.0 °C 1012.1 hPa SE 5.0 km/h 13.4 km/h 61% 0.0 mm
15:49 14.4 °C 7.0 °C 1012.2 hPa SE 6.1 km/h 13.4 km/h 61% 0.0 mm
15:54 14.3 °C 7.1 °C 1012.1 hPa SSE 5.0 km/h 13.4 km/h 62% 0.0 mm
15:59 13.7 °C 7.0 °C 1012.0 hPa SSE 7.2 km/h 15.8 km/h 64% 0.0 mm
16:04 13.3 °C 6.9 °C 1012.1 hPa SSE 6.1 km/h 15.8 km/h 65% 0.0 mm
16:09 13.1 °C 7.1 °C 1012.1 hPa South 5.0 km/h 14.8 km/h 67% 0.0 mm
16:14 12.9 °C 7.2 °C 1012.1 hPa SSE 12.2 km/h 17.2 km/h 68% 0.0 mm
16:19 12.8 °C 7.3 °C 1012.3 hPa SSE 13.4 km/h 17.2 km/h 69% 0.0 mm
16:24 12.6 °C 7.1 °C 1012.5 hPa SSE 2.6 km/h 17.2 km/h 69% 0.0 mm
16:29 12.5 °C 6.9 °C 1012.5 hPa South 3.5 km/h 13.4 km/h 69% 0.0 mm
16:35 12.4 °C 7.1 °C 1012.5 hPa SSE 6.1 km/h 14.8 km/h 70% 0.0 mm
16:40 12.3 °C 7.0 °C 1012.5 hPa SSE 7.2 km/h 14.8 km/h 70% 0.0 mm
16:44 12.2 °C 6.9 °C 1012.6 hPa SSE 7.2 km/h 14.8 km/h 70% 0.0 mm
16:49 12.1 °C 6.8 °C 1012.6 hPa SSE 5.0 km/h 14.8 km/h 70% 0.0 mm
16:54 12.0 °C 6.7 °C 1012.7 hPa SSE 3.5 km/h 14.8 km/h 70% 0.0 mm
16:59 11.9 °C 7.0 °C 1012.7 hPa SSE 8.7 km/h 17.2 km/h 72% 0.0 mm
17:04 11.9 °C 7.0 °C 1012.8 hPa SSE 8.7 km/h 17.2 km/h 72% 0.0 mm
17:09 11.9 °C 7.0 °C 1012.9 hPa SSE 12.2 km/h 18.3 km/h 72% 0.0 mm
17:14 11.8 °C 6.9 °C 1013.0 hPa SSE 7.2 km/h 19.5 km/h 72% 0.0 mm
17:19 11.7 °C 6.8 °C 1013.1 hPa SE 9.7 km/h 19.5 km/h 72% 0.0 mm
17:24 11.7 °C 7.0 °C 1013.0 hPa SE 9.7 km/h 21.9 km/h 73% 0.0 mm
17:29 11.7 °C 7.0 °C 1013.2 hPa SSE 8.7 km/h 21.9 km/h 73% 0.0 mm
17:34 11.7 °C 6.8 °C 1013.3 hPa SSE 13.4 km/h 21.9 km/h 72% 0.0 mm
17:39 11.7 °C 6.8 °C 1013.3 hPa SE 12.2 km/h 21.9 km/h 72% 0.0 mm
17:44 11.7 °C 6.8 °C 1013.5 hPa ESE 9.7 km/h 21.9 km/h 72% 0.0 mm
17:50 11.8 °C 6.9 °C 1013.4 hPa ESE 7.2 km/h 18.3 km/h 72% 0.0 mm
17:54 11.7 °C 6.8 °C 1013.5 hPa SE 8.7 km/h 18.3 km/h 72% 0.0 mm
18:00 11.6 °C 6.7 °C 1013.6 hPa SSE 11.1 km/h 21.9 km/h 72% 0.0 mm
18:04 11.7 °C 6.8 °C 1013.6 hPa SE 7.2 km/h 21.9 km/h 72% 0.0 mm
18:09 11.6 °C 6.7 °C 1013.6 hPa SSE 7.2 km/h 15.8 km/h 72% 0.0 mm
18:14 11.6 °C 6.7 °C 1013.8 hPa SSE 9.7 km/h 15.8 km/h 72% 0.0 mm
18:19 11.7 °C 6.8 °C 1013.9 hPa SE 6.1 km/h 17.2 km/h 72% 0.0 mm
18:25 11.8 °C 6.9 °C 1014.1 hPa SE 12.2 km/h 23.3 km/h 72% 0.0 mm
18:29 11.8 °C 6.9 °C 1013.9 hPa SSE 9.7 km/h 23.3 km/h 72% 0.0 mm
18:35 11.8 °C 6.7 °C 1014.1 hPa South 14.8 km/h 20.9 km/h 71% 0.0 mm
18:39 11.8 °C 6.7 °C 1014.0 hPa SSE 9.7 km/h 20.9 km/h 71% 0.0 mm
18:44 11.8 °C 6.7 °C 1013.9 hPa SE 9.7 km/h 23.3 km/h 71% 0.0 mm
18:49 11.7 °C 6.6 °C 1013.9 hPa SE 7.2 km/h 23.3 km/h 71% 0.0 mm
18:55 11.6 °C 6.5 °C 1014.0 hPa SSE 9.7 km/h 23.3 km/h 71% 0.0 mm
18:59 11.5 °C 6.6 °C 1014.1 hPa SSE 9.7 km/h 19.5 km/h 72% 0.0 mm
19:05 11.5 °C 6.6 °C 1014.3 hPa SSE 9.7 km/h 19.5 km/h 72% 0.0 mm
19:09 11.5 °C 6.6 °C 1014.2 hPa SSE 14.8 km/h 20.9 km/h 72% 0.0 mm
19:14 11.4 °C 6.6 °C 1014.3 hPa SSE 12.2 km/h 23.3 km/h 72% 0.0 mm
19:19 11.3 °C 6.7 °C 1014.4 hPa SSE 7.2 km/h 23.3 km/h 73% 0.0 mm
19:24 11.3 °C 6.7 °C 1014.6 hPa SSE 6.1 km/h 19.5 km/h 73% 0.0 mm
19:29 11.2 °C 6.6 °C 1014.6 hPa SSE 8.7 km/h 14.8 km/h 73% 0.0 mm
19:34 11.1 °C 6.4 °C 1014.7 hPa SSE 8.7 km/h 20.9 km/h 73% 0.0 mm
19:39 11.1 °C 6.4 °C 1014.8 hPa SSE 6.1 km/h 20.9 km/h 73% 0.0 mm
19:44 11.1 °C 6.4 °C 1014.9 hPa SSE 11.1 km/h 14.8 km/h 73% 0.0 mm
19:49 11.1 °C 6.4 °C 1014.9 hPa SE 14.8 km/h 20.9 km/h 73% 0.0 mm
19:54 11.1 °C 6.4 °C 1015.0 hPa SE 11.1 km/h 20.9 km/h 73% 0.0 mm
19:59 11.1 °C 6.2 °C 1015.0 hPa ESE 11.1 km/h 20.9 km/h 72% 0.0 mm
20:04 11.0 °C 6.2 °C 1015.0 hPa SE 8.7 km/h 19.5 km/h 72% 0.0 mm
20:09 11.0 °C 6.3 °C 1015.0 hPa SSE 6.1 km/h 20.9 km/h 73% 0.0 mm
20:14 11.0 °C 6.2 °C 1015.0 hPa SSE 11.1 km/h 20.9 km/h 72% 0.0 mm
20:19 11.0 °C 6.2 °C 1015.2 hPa SSE 8.7 km/h 21.9 km/h 72% 0.0 mm
20:24 11.0 °C 6.2 °C 1015.3 hPa SE 8.7 km/h 21.9 km/h 72% 0.0 mm
20:29 11.0 °C 6.2 °C 1015.3 hPa SSE 8.7 km/h 17.2 km/h 72% 0.0 mm
20:34 11.0 °C 6.2 °C 1015.4 hPa SSE 12.2 km/h 17.2 km/h 72% 0.0 mm
20:39 11.0 °C 6.2 °C 1015.6 hPa SE 8.7 km/h 20.9 km/h 72% 0.0 mm
20:44 11.0 °C 5.9 °C 1015.7 hPa SE 11.1 km/h 20.9 km/h 71% 0.0 mm
20:50 10.9 °C 6.1 °C 1015.7 hPa SE 7.2 km/h 18.3 km/h 72% 0.0 mm
20:54 10.9 °C 6.1 °C 1015.8 hPa SE 8.7 km/h 17.2 km/h 72% 0.0 mm
20:59 11.0 °C 5.9 °C 1015.8 hPa SSE 9.7 km/h 17.2 km/h 71% 0.0 mm
21:04 11.0 °C 5.9 °C 1015.8 hPa SSE 3.5 km/h 19.5 km/h 71% 0.0 mm
21:09 11.0 °C 5.7 °C 1015.9 hPa South 12.2 km/h 20.9 km/h 70% 0.0 mm
21:14 11.0 °C 5.7 °C 1015.8 hPa South 9.7 km/h 25.6 km/h 70% 0.0 mm
21:19 11.0 °C 5.7 °C 1015.9 hPa SSE 13.4 km/h 25.6 km/h 70% 0.0 mm
21:24 10.9 °C 5.8 °C 1015.8 hPa SSE 15.8 km/h 24.5 km/h 71% 0.0 mm
21:29 10.9 °C 5.7 °C 1015.9 hPa SE 11.1 km/h 24.5 km/h 70% 0.0 mm
21:34 10.9 °C 5.7 °C 1015.8 hPa SE 11.1 km/h 25.6 km/h 70% 0.0 mm
21:39 10.9 °C 5.7 °C 1015.9 hPa SE 13.4 km/h 25.6 km/h 70% 0.0 mm
21:44 10.8 °C 5.6 °C 1016.0 hPa SSE 14.8 km/h 23.3 km/h 70% 0.0 mm
21:49 10.8 °C 5.6 °C 1016.0 hPa SSE 8.7 km/h 23.3 km/h 70% 0.0 mm
21:55 10.8 °C 5.6 °C 1015.8 hPa SSE 9.7 km/h 27.0 km/h 70% 0.0 mm
21:59 10.8 °C 5.6 °C 1016.0 hPa SSE 8.7 km/h 27.0 km/h 70% 0.0 mm
22:04 10.8 °C 5.6 °C 1016.0 hPa SSE 12.2 km/h 24.5 km/h 70% 0.0 mm
Waitara, Taranaki. New Zealand Historic Data
Compliments of Weather Underground - 2 mb